sensor_id;sensor_type;location;lat;lon;timestamp;P1;durP1;ratioP1;P2;durP2;ratioP2
19026;SDS011;9646;52.034;5.554;2022-08-01T00:01:34;6.18;;;3.63;;
19026;SDS011;9646;52.034;5.554;2022-08-01T00:04:01;4.05;;;3.50;;
19026;SDS011;9646;52.034;5.554;2022-08-01T00:06:28;6.03;;;3.75;;
19026;SDS011;9646;52.034;5.554;2022-08-01T00:08:55;6.15;;;4.50;;
19026;SDS011;9646;52.034;5.554;2022-08-01T00:11:23;5.35;;;4.10;;
19026;SDS011;9646;52.034;5.554;2022-08-01T00:13:50;4.28;;;3.38;;
19026;SDS011;9646;52.034;5.554;2022-08-01T00:16:17;4.47;;;3.05;;
19026;SDS011;9646;52.034;5.554;2022-08-01T00:18:47;3.50;;;3.20;;
19026;SDS011;9646;52.034;5.554;2022-08-01T00:21:14;4.75;;;4.18;;
19026;SDS011;9646;52.034;5.554;2022-08-01T00:23:41;3.33;;;3.03;;
19026;SDS011;9646;52.034;5.554;2022-08-01T00:26:10;5.10;;;3.85;;
19026;SDS011;9646;52.034;5.554;2022-08-01T00:28:38;5.88;;;3.85;;
19026;SDS011;9646;52.034;5.554;2022-08-01T00:31:06;5.13;;;3.03;;
19026;SDS011;9646;52.034;5.554;2022-08-01T00:33:33;5.32;;;4.03;;
19026;SDS011;9646;52.034;5.554;2022-08-01T00:36:00;3.50;;;2.90;;
19026;SDS011;9646;52.034;5.554;2022-08-01T00:38:27;5.05;;;3.25;;
19026;SDS011;9646;52.034;5.554;2022-08-01T00:40:54;4.57;;;4.13;;
19026;SDS011;9646;52.034;5.554;2022-08-01T00:43:21;4.40;;;3.60;;
19026;SDS011;9646;52.034;5.554;2022-08-01T00:45:49;5.03;;;3.65;;
19026;SDS011;9646;52.034;5.554;2022-08-01T00:48:16;4.90;;;4.05;;
19026;SDS011;9646;52.034;5.554;2022-08-01T00:50:43;5.88;;;4.53;;
19026;SDS011;9646;52.034;5.554;2022-08-01T00:53:11;6.82;;;4.55;;
19026;SDS011;9646;52.034;5.554;2022-08-01T00:55:38;7.22;;;4.65;;
19026;SDS011;9646;52.034;5.554;2022-08-01T00:58:05;9.38;;;6.18;;
19026;SDS011;9646;52.034;5.554;2022-08-01T01:00:33;6.15;;;4.35;;
19026;SDS011;9646;52.034;5.554;2022-08-01T01:03:02;8.23;;;6.07;;
19026;SDS011;9646;52.034;5.554;2022-08-01T01:05:29;7.97;;;5.25;;
19026;SDS011;9646;52.034;5.554;2022-08-01T01:08:01;8.27;;;4.75;;
19026;SDS011;9646;52.034;5.554;2022-08-01T01:10:30;8.35;;;5.30;;
19026;SDS011;9646;52.034;5.554;2022-08-01T01:12:59;10.95;;;5.97;;
19026;SDS011;9646;52.034;5.554;2022-08-01T01:15:30;7.45;;;5.15;;
19026;SDS011;9646;52.034;5.554;2022-08-01T01:18:03;6.95;;;4.70;;
19026;SDS011;9646;52.034;5.554;2022-08-01T01:20:32;8.18;;;4.70;;
19026;SDS011;9646;52.034;5.554;2022-08-01T01:25:51;4.85;;;4.30;;
19026;SDS011;9646;52.034;5.554;2022-08-01T01:28:29;6.70;;;4.72;;
19026;SDS011;9646;52.034;5.554;2022-08-01T01:31:00;6.18;;;4.43;;
19026;SDS011;9646;52.034;5.554;2022-08-01T01:33:29;8.90;;;5.38;;
19026;SDS011;9646;52.034;5.554;2022-08-01T01:35:57;11.43;;;5.45;;
19026;SDS011;9646;52.034;5.554;2022-08-01T01:38:26;8.20;;;4.72;;
19026;SDS011;9646;52.034;5.554;2022-08-01T01:40:55;5.50;;;4.47;;
19026;SDS011;9646;52.034;5.554;2022-08-01T01:43:22;5.97;;;4.25;;
19026;SDS011;9646;52.034;5.554;2022-08-01T01:45:50;6.97;;;5.18;;
19026;SDS011;9646;52.034;5.554;2022-08-01T01:48:20;5.38;;;3.70;;
19026;SDS011;9646;52.034;5.554;2022-08-01T01:50:48;7.13;;;5.43;;
19026;SDS011;9646;52.034;5.554;2022-08-01T01:53:16;5.85;;;3.92;;
19026;SDS011;9646;52.034;5.554;2022-08-01T01:55:44;7.57;;;4.88;;
19026;SDS011;9646;52.034;5.554;2022-08-01T01:58:13;7.13;;;5.65;;
19026;SDS011;9646;52.034;5.554;2022-08-01T02:00:40;5.35;;;4.20;;
19026;SDS011;9646;52.034;5.554;2022-08-01T02:03:11;6.22;;;4.45;;
19026;SDS011;9646;52.034;5.554;2022-08-01T02:05:41;8.05;;;5.43;;
19026;SDS011;9646;52.034;5.554;2022-08-01T02:08:08;6.70;;;5.20;;
19026;SDS011;9646;52.034;5.554;2022-08-01T02:10:37;6.85;;;4.47;;
19026;SDS011;9646;52.034;5.554;2022-08-01T02:13:06;7.80;;;5.72;;
19026;SDS011;9646;52.034;5.554;2022-08-01T02:15:34;6.75;;;4.63;;
19026;SDS011;9646;52.034;5.554;2022-08-01T02:18:03;8.68;;;5.72;;
19026;SDS011;9646;52.034;5.554;2022-08-01T02:20:32;9.27;;;5.18;;
19026;SDS011;9646;52.034;5.554;2022-08-01T02:23:04;9.80;;;6.97;;
19026;SDS011;9646;52.034;5.554;2022-08-01T02:25:34;6.72;;;5.03;;
19026;SDS011;9646;52.034;5.554;2022-08-01T02:28:03;11.43;;;6.35;;
19026;SDS011;9646;52.034;5.554;2022-08-01T02:30:32;12.18;;;7.25;;
19026;SDS011;9646;52.034;5.554;2022-08-01T02:33:02;6.57;;;4.95;;
19026;SDS011;9646;52.034;5.554;2022-08-01T02:35:30;10.02;;;6.97;;
19026;SDS011;9646;52.034;5.554;2022-08-01T02:37:58;8.10;;;6.45;;
19026;SDS011;9646;52.034;5.554;2022-08-01T02:40:28;10.23;;;6.57;;
19026;SDS011;9646;52.034;5.554;2022-08-01T02:42:56;6.45;;;5.07;;
19026;SDS011;9646;52.034;5.554;2022-08-01T02:45:25;8.68;;;5.88;;
19026;SDS011;9646;52.034;5.554;2022-08-01T02:47:53;7.90;;;5.22;;
19026;SDS011;9646;52.034;5.554;2022-08-01T02:50:22;7.00;;;4.97;;
19026;SDS011;9646;52.034;5.554;2022-08-01T02:52:50;6.13;;;4.05;;
19026;SDS011;9646;52.034;5.554;2022-08-01T02:55:19;6.95;;;4.97;;
19026;SDS011;9646;52.034;5.554;2022-08-01T02:57:49;8.27;;;5.88;;
19026;SDS011;9646;52.034;5.554;2022-08-01T03:00:16;7.30;;;5.60;;
19026;SDS011;9646;52.034;5.554;2022-08-01T03:02:44;6.95;;;5.22;;
19026;SDS011;9646;52.034;5.554;2022-08-01T03:05:13;7.40;;;5.70;;
19026;SDS011;9646;52.034;5.554;2022-08-01T03:07:42;6.38;;;4.05;;
19026;SDS011;9646;52.034;5.554;2022-08-01T03:10:09;6.43;;;4.60;;
19026;SDS011;9646;52.034;5.554;2022-08-01T03:12:37;5.70;;;4.10;;
19026;SDS011;9646;52.034;5.554;2022-08-01T03:15:06;5.55;;;3.47;;
19026;SDS011;9646;52.034;5.554;2022-08-01T03:17:33;5.97;;;4.13;;
19026;SDS011;9646;52.034;5.554;2022-08-01T03:20:03;5.75;;;3.60;;
19026;SDS011;9646;52.034;5.554;2022-08-01T03:22:31;5.05;;;3.67;;
19026;SDS011;9646;52.034;5.554;2022-08-01T03:24:59;4.55;;;3.55;;
19026;SDS011;9646;52.034;5.554;2022-08-01T03:27:28;6.18;;;3.80;;
19026;SDS011;9646;52.034;5.554;2022-08-01T03:29:56;7.70;;;4.55;;
19026;SDS011;9646;52.034;5.554;2022-08-01T03:32:25;6.47;;;3.78;;
19026;SDS011;9646;52.034;5.554;2022-08-01T03:34:54;6.38;;;4.30;;
19026;SDS011;9646;52.034;5.554;2022-08-01T03:37:21;4.57;;;3.88;;
19026;SDS011;9646;52.034;5.554;2022-08-01T03:39:52;5.05;;;4.10;;
19026;SDS011;9646;52.034;5.554;2022-08-01T03:42:23;4.97;;;3.75;;
19026;SDS011;9646;52.034;5.554;2022-08-01T03:44:52;4.68;;;3.58;;
19026;SDS011;9646;52.034;5.554;2022-08-01T03:47:21;6.93;;;4.40;;
19026;SDS011;9646;52.034;5.554;2022-08-01T03:49:51;5.72;;;4.18;;
19026;SDS011;9646;52.034;5.554;2022-08-01T03:52:18;6.13;;;4.30;;
19026;SDS011;9646;52.034;5.554;2022-08-01T03:54:47;5.25;;;4.22;;
19026;SDS011;9646;52.034;5.554;2022-08-01T03:57:14;5.68;;;4.68;;
19026;SDS011;9646;52.034;5.554;2022-08-01T03:59:42;5.30;;;4.00;;
19026;SDS011;9646;52.034;5.554;2022-08-01T04:02:09;6.80;;;5.10;;
19026;SDS011;9646;52.034;5.554;2022-08-01T04:04:36;7.07;;;5.00;;
19026;SDS011;9646;52.034;5.554;2022-08-01T04:07:05;7.88;;;5.03;;
19026;SDS011;9646;52.034;5.554;2022-08-01T04:09:47;7.20;;;5.43;;
19026;SDS011;9646;52.034;5.554;2022-08-01T04:12:14;5.90;;;4.28;;
19026;SDS011;9646;52.034;5.554;2022-08-01T04:14:41;5.85;;;3.75;;
19026;SDS011;9646;52.034;5.554;2022-08-01T04:17:08;4.65;;;3.47;;
19026;SDS011;9646;52.034;5.554;2022-08-01T04:19:35;6.68;;;4.60;;
19026;SDS011;9646;52.034;5.554;2022-08-01T04:22:02;5.40;;;4.00;;
19026;SDS011;9646;52.034;5.554;2022-08-01T04:24:31;5.95;;;4.55;;
19026;SDS011;9646;52.034;5.554;2022-08-01T04:27:00;7.25;;;4.50;;
19026;SDS011;9646;52.034;5.554;2022-08-01T04:29:28;5.63;;;4.05;;
19026;SDS011;9646;52.034;5.554;2022-08-01T04:31:56;6.25;;;3.80;;
19026;SDS011;9646;52.034;5.554;2022-08-01T04:34:25;4.60;;;3.70;;
19026;SDS011;9646;52.034;5.554;2022-08-01T04:36:54;5.30;;;4.50;;
19026;SDS011;9646;52.034;5.554;2022-08-01T04:39:21;5.18;;;4.55;;
19026;SDS011;9646;52.034;5.554;2022-08-01T04:41:54;6.22;;;4.40;;
19026;SDS011;9646;52.034;5.554;2022-08-01T04:44:22;5.15;;;3.65;;
19026;SDS011;9646;52.034;5.554;2022-08-01T04:46:49;5.40;;;4.85;;
19026;SDS011;9646;52.034;5.554;2022-08-01T04:49:19;5.53;;;4.13;;
19026;SDS011;9646;52.034;5.554;2022-08-01T04:51:50;7.13;;;4.25;;
19026;SDS011;9646;52.034;5.554;2022-08-01T04:54:17;4.32;;;3.92;;
19026;SDS011;9646;52.034;5.554;2022-08-01T04:56:46;4.65;;;4.03;;
19026;SDS011;9646;52.034;5.554;2022-08-01T04:59:14;4.80;;;4.30;;
19026;SDS011;9646;52.034;5.554;2022-08-01T05:01:59;5.20;;;4.10;;
19026;SDS011;9646;52.034;5.554;2022-08-01T05:04:27;4.80;;;3.72;;
19026;SDS011;9646;52.034;5.554;2022-08-01T05:06:54;4.35;;;3.45;;
19026;SDS011;9646;52.034;5.554;2022-08-01T05:09:21;5.45;;;3.83;;
19026;SDS011;9646;52.034;5.554;2022-08-01T05:11:48;4.82;;;3.33;;
19026;SDS011;9646;52.034;5.554;2022-08-01T05:14:16;5.80;;;4.03;;
19026;SDS011;9646;52.034;5.554;2022-08-01T05:16:44;3.20;;;2.90;;
19026;SDS011;9646;52.034;5.554;2022-08-01T05:19:11;4.07;;;2.35;;
19026;SDS011;9646;52.034;5.554;2022-08-01T05:21:38;2.30;;;1.90;;
19026;SDS011;9646;52.034;5.554;2022-08-01T05:24:05;2.80;;;1.48;;
19026;SDS011;9646;52.034;5.554;2022-08-01T05:26:32;2.20;;;1.20;;
19026;SDS011;9646;52.034;5.554;2022-08-01T05:28:59;2.13;;;1.15;;
19026;SDS011;9646;52.034;5.554;2022-08-01T05:31:28;1.58;;;1.10;;
19026;SDS011;9646;52.034;5.554;2022-08-01T05:33:57;1.20;;;1.10;;
19026;SDS011;9646;52.034;5.554;2022-08-01T05:36:24;1.70;;;1.10;;
19026;SDS011;9646;52.034;5.554;2022-08-01T05:38:51;1.10;;;1.00;;
19026;SDS011;9646;52.034;5.554;2022-08-01T05:41:18;1.00;;;0.90;;
19026;SDS011;9646;52.034;5.554;2022-08-01T05:43:45;1.15;;;1.05;;
19026;SDS011;9646;52.034;5.554;2022-08-01T05:46:13;1.33;;;1.00;;
19026;SDS011;9646;52.034;5.554;2022-08-01T05:48:41;4.47;;;1.10;;
19026;SDS011;9646;52.034;5.554;2022-08-01T05:51:08;1.15;;;1.05;;
19026;SDS011;9646;52.034;5.554;2022-08-01T05:53:35;1.50;;;0.88;;
19026;SDS011;9646;52.034;5.554;2022-08-01T05:56:02;0.80;;;0.80;;
19026;SDS011;9646;52.034;5.554;2022-08-01T05:58:30;1.35;;;1.20;;
19026;SDS011;9646;52.034;5.554;2022-08-01T06:00:57;1.48;;;0.93;;
19026;SDS011;9646;52.034;5.554;2022-08-01T06:03:25;1.95;;;1.00;;
19026;SDS011;9646;52.034;5.554;2022-08-01T06:05:57;1.45;;;1.17;;
19026;SDS011;9646;52.034;5.554;2022-08-01T06:08:24;1.10;;;1.00;;
19026;SDS011;9646;52.034;5.554;2022-08-01T06:10:51;1.20;;;0.98;;
19026;SDS011;9646;52.034;5.554;2022-08-01T06:13:18;0.98;;;0.80;;
19026;SDS011;9646;52.034;5.554;2022-08-01T06:15:45;1.35;;;1.10;;
19026;SDS011;9646;52.034;5.554;2022-08-01T06:18:13;1.75;;;1.00;;
19026;SDS011;9646;52.034;5.554;2022-08-01T06:20:40;1.23;;;1.00;;
19026;SDS011;9646;52.034;5.554;2022-08-01T06:23:09;2.25;;;1.05;;
19026;SDS011;9646;52.034;5.554;2022-08-01T06:25:36;1.65;;;1.08;;
19026;SDS011;9646;52.034;5.554;2022-08-01T06:28:03;2.53;;;1.00;;
19026;SDS011;9646;52.034;5.554;2022-08-01T06:30:30;1.90;;;1.00;;
19026;SDS011;9646;52.034;5.554;2022-08-01T06:32:57;1.35;;;1.05;;
19026;SDS011;9646;52.034;5.554;2022-08-01T06:35:25;2.05;;;0.90;;
19026;SDS011;9646;52.034;5.554;2022-08-01T06:37:53;1.23;;;1.10;;
19026;SDS011;9646;52.034;5.554;2022-08-01T06:40:21;2.03;;;0.95;;
19026;SDS011;9646;52.034;5.554;2022-08-01T06:42:48;1.20;;;0.90;;
19026;SDS011;9646;52.034;5.554;2022-08-01T06:45:16;1.33;;;0.85;;
19026;SDS011;9646;52.034;5.554;2022-08-01T06:47:43;1.27;;;1.10;;
19026;SDS011;9646;52.034;5.554;2022-08-01T06:50:10;2.10;;;0.90;;
19026;SDS011;9646;52.034;5.554;2022-08-01T06:52:39;1.45;;;1.00;;
19026;SDS011;9646;52.034;5.554;2022-08-01T06:55:06;1.40;;;1.00;;
19026;SDS011;9646;52.034;5.554;2022-08-01T06:57:35;1.08;;;0.98;;
19026;SDS011;9646;52.034;5.554;2022-08-01T07:00:03;2.55;;;1.35;;
19026;SDS011;9646;52.034;5.554;2022-08-01T07:02:31;2.05;;;1.17;;
19026;SDS011;9646;52.034;5.554;2022-08-01T07:04:58;1.73;;;1.13;;
19026;SDS011;9646;52.034;5.554;2022-08-01T07:07:25;1.17;;;1.02;;
19026;SDS011;9646;52.034;5.554;2022-08-01T07:09:52;1.20;;;1.10;;
19026;SDS011;9646;52.034;5.554;2022-08-01T07:12:19;1.15;;;0.93;;
19026;SDS011;9646;52.034;5.554;2022-08-01T07:14:48;1.95;;;1.48;;
19026;SDS011;9646;52.034;5.554;2022-08-01T07:17:15;1.25;;;1.15;;
19026;SDS011;9646;52.034;5.554;2022-08-01T07:19:42;1.83;;;1.40;;
19026;SDS011;9646;52.034;5.554;2022-08-01T07:22:09;2.67;;;1.60;;
19026;SDS011;9646;52.034;5.554;2022-08-01T07:24:36;2.45;;;1.40;;
19026;SDS011;9646;52.034;5.554;2022-08-01T07:27:03;2.00;;;1.63;;
19026;SDS011;9646;52.034;5.554;2022-08-01T07:29:30;1.60;;;1.40;;
19026;SDS011;9646;52.034;5.554;2022-08-01T07:31:59;2.58;;;1.50;;
19026;SDS011;9646;52.034;5.554;2022-08-01T07:34:26;2.67;;;1.38;;
19026;SDS011;9646;52.034;5.554;2022-08-01T07:36:53;1.35;;;1.20;;
19026;SDS011;9646;52.034;5.554;2022-08-01T07:39:20;1.40;;;1.30;;
19026;SDS011;9646;52.034;5.554;2022-08-01T07:41:47;1.52;;;1.25;;
19026;SDS011;9646;52.034;5.554;2022-08-01T07:44:14;1.83;;;1.27;;
19026;SDS011;9646;52.034;5.554;2022-08-01T07:46:41;1.55;;;1.38;;
19026;SDS011;9646;52.034;5.554;2022-08-01T07:49:10;3.83;;;1.92;;
19026;SDS011;9646;52.034;5.554;2022-08-01T07:51:37;3.15;;;1.40;;
19026;SDS011;9646;52.034;5.554;2022-08-01T07:54:04;3.17;;;1.63;;
19026;SDS011;9646;52.034;5.554;2022-08-01T07:56:32;3.00;;;1.30;;
19026;SDS011;9646;52.034;5.554;2022-08-01T07:58:59;2.35;;;1.17;;
19026;SDS011;9646;52.034;5.554;2022-08-01T08:01:26;1.52;;;1.33;;
19026;SDS011;9646;52.034;5.554;2022-08-01T08:03:53;1.58;;;1.33;;
19026;SDS011;9646;52.034;5.554;2022-08-01T08:06:22;1.73;;;1.30;;
19026;SDS011;9646;52.034;5.554;2022-08-01T08:08:49;1.67;;;1.17;;
19026;SDS011;9646;52.034;5.554;2022-08-01T08:11:18;2.92;;;1.23;;
19026;SDS011;9646;52.034;5.554;2022-08-01T08:13:45;2.15;;;1.33;;
19026;SDS011;9646;52.034;5.554;2022-08-01T08:16:12;1.77;;;1.30;;
19026;SDS011;9646;52.034;5.554;2022-08-01T08:18:39;2.55;;;1.40;;
19026;SDS011;9646;52.034;5.554;2022-08-01T08:21:06;1.60;;;1.50;;
19026;SDS011;9646;52.034;5.554;2022-08-01T08:23:35;3.90;;;1.80;;
19026;SDS011;9646;52.034;5.554;2022-08-01T08:26:19;2.92;;;2.05;;
19026;SDS011;9646;52.034;5.554;2022-08-01T08:28:48;3.75;;;1.83;;
19026;SDS011;9646;52.034;5.554;2022-08-01T08:31:15;3.83;;;1.40;;
19026;SDS011;9646;52.034;5.554;2022-08-01T08:33:42;2.17;;;1.45;;
19026;SDS011;9646;52.034;5.554;2022-08-01T08:36:09;2.63;;;1.40;;
19026;SDS011;9646;52.034;5.554;2022-08-01T08:38:38;5.10;;;2.25;;
19026;SDS011;9646;52.034;5.554;2022-08-01T08:41:05;4.18;;;1.85;;
19026;SDS011;9646;52.034;5.554;2022-08-01T08:43:32;2.83;;;1.58;;
19026;SDS011;9646;52.034;5.554;2022-08-01T08:46:00;4.05;;;1.83;;
19026;SDS011;9646;52.034;5.554;2022-08-01T08:48:27;5.22;;;1.88;;
19026;SDS011;9646;52.034;5.554;2022-08-01T08:50:55;3.47;;;1.65;;
19026;SDS011;9646;52.034;5.554;2022-08-01T08:53:24;6.53;;;2.03;;
19026;SDS011;9646;52.034;5.554;2022-08-01T08:55:53;3.60;;;1.80;;
19026;SDS011;9646;52.034;5.554;2022-08-01T08:58:21;3.95;;;1.95;;
19026;SDS011;9646;52.034;5.554;2022-08-01T09:00:48;6.15;;;2.17;;
19026;SDS011;9646;52.034;5.554;2022-08-01T09:03:15;10.65;;;2.55;;
19026;SDS011;9646;52.034;5.554;2022-08-01T09:05:43;7.38;;;2.58;;
19026;SDS011;9646;52.034;5.554;2022-08-01T09:08:10;6.53;;;2.35;;
19026;SDS011;9646;52.034;5.554;2022-08-01T09:10:38;6.45;;;2.30;;
19026;SDS011;9646;52.034;5.554;2022-08-01T09:13:08;5.80;;;1.70;;
19026;SDS011;9646;52.034;5.554;2022-08-01T09:15:43;9.00;;;2.08;;
19026;SDS011;9646;52.034;5.554;2022-08-01T09:18:26;7.95;;;2.22;;
19026;SDS011;9646;52.034;5.554;2022-08-01T09:23:36;6.32;;;1.98;;
19026;SDS011;9646;52.034;5.554;2022-08-01T09:26:04;6.07;;;1.92;;
19026;SDS011;9646;52.034;5.554;2022-08-01T09:28:33;5.22;;;2.10;;
19026;SDS011;9646;52.034;5.554;2022-08-01T09:31:05;3.67;;;1.70;;
19026;SDS011;9646;52.034;5.554;2022-08-01T09:33:45;4.63;;;1.70;;
19026;SDS011;9646;52.034;5.554;2022-08-01T09:36:13;6.68;;;1.83;;
19026;SDS011;9646;52.034;5.554;2022-08-01T09:38:40;6.28;;;2.20;;
19026;SDS011;9646;52.034;5.554;2022-08-01T09:41:07;4.47;;;1.60;;
19026;SDS011;9646;52.034;5.554;2022-08-01T09:43:37;5.72;;;2.10;;
19026;SDS011;9646;52.034;5.554;2022-08-01T09:46:05;4.28;;;1.35;;
19026;SDS011;9646;52.034;5.554;2022-08-01T09:48:36;8.45;;;2.22;;
19026;SDS011;9646;52.034;5.554;2022-08-01T09:51:04;5.35;;;1.90;;
19026;SDS011;9646;52.034;5.554;2022-08-01T09:53:41;7.85;;;2.33;;
19026;SDS011;9646;52.034;5.554;2022-08-01T09:56:09;6.35;;;2.22;;
19026;SDS011;9646;52.034;5.554;2022-08-01T09:58:49;4.68;;;1.92;;
19026;SDS011;9646;52.034;5.554;2022-08-01T10:01:16;3.80;;;1.52;;
19026;SDS011;9646;52.034;5.554;2022-08-01T10:03:43;8.57;;;2.67;;
19026;SDS011;9646;52.034;5.554;2022-08-01T10:06:19;11.43;;;2.33;;
19026;SDS011;9646;52.034;5.554;2022-08-01T10:08:47;8.27;;;2.42;;
19026;SDS011;9646;52.034;5.554;2022-08-01T10:11:14;9.20;;;2.22;;
19026;SDS011;9646;52.034;5.554;2022-08-01T10:13:41;5.20;;;2.10;;
19026;SDS011;9646;52.034;5.554;2022-08-01T10:16:10;5.50;;;2.03;;
19026;SDS011;9646;52.034;5.554;2022-08-01T10:18:39;4.70;;;1.63;;
19026;SDS011;9646;52.034;5.554;2022-08-01T10:21:07;5.38;;;1.92;;
19026;SDS011;9646;52.034;5.554;2022-08-01T10:23:35;4.57;;;1.70;;
19026;SDS011;9646;52.034;5.554;2022-08-01T10:26:03;4.82;;;1.23;;
19026;SDS011;9646;52.034;5.554;2022-08-01T10:28:31;4.57;;;1.77;;
19026;SDS011;9646;52.034;5.554;2022-08-01T10:31:01;4.30;;;1.80;;
19026;SDS011;9646;52.034;5.554;2022-08-01T10:33:30;4.97;;;1.80;;
19026;SDS011;9646;52.034;5.554;2022-08-01T10:35:57;8.35;;;1.85;;
19026;SDS011;9646;52.034;5.554;2022-08-01T10:38:25;8.13;;;2.45;;
19026;SDS011;9646;52.034;5.554;2022-08-01T10:40:52;3.53;;;1.40;;
19026;SDS011;9646;52.034;5.554;2022-08-01T10:43:21;5.95;;;1.85;;
19026;SDS011;9646;52.034;5.554;2022-08-01T10:45:48;5.75;;;1.88;;
19026;SDS011;9646;52.034;5.554;2022-08-01T10:48:18;4.60;;;1.52;;
19026;SDS011;9646;52.034;5.554;2022-08-01T10:50:48;6.40;;;1.65;;
19026;SDS011;9646;52.034;5.554;2022-08-01T10:53:17;3.05;;;1.55;;
19026;SDS011;9646;52.034;5.554;2022-08-01T10:55:44;4.22;;;1.60;;
19026;SDS011;9646;52.034;5.554;2022-08-01T10:58:12;3.50;;;1.50;;
19026;SDS011;9646;52.034;5.554;2022-08-01T11:00:39;9.13;;;1.60;;
19026;SDS011;9646;52.034;5.554;2022-08-01T11:03:06;5.13;;;1.60;;
19026;SDS011;9646;52.034;5.554;2022-08-01T11:05:33;4.45;;;1.30;;
19026;SDS011;9646;52.034;5.554;2022-08-01T11:08:03;4.00;;;1.60;;
19026;SDS011;9646;52.034;5.554;2022-08-01T11:10:34;7.57;;;2.15;;
19026;SDS011;9646;52.034;5.554;2022-08-01T11:13:03;5.68;;;1.58;;
19026;SDS011;9646;52.034;5.554;2022-08-01T11:15:33;2.83;;;1.42;;
19026;SDS011;9646;52.034;5.554;2022-08-01T11:18:01;4.70;;;1.75;;
19026;SDS011;9646;52.034;5.554;2022-08-01T11:20:29;5.43;;;1.88;;
19026;SDS011;9646;52.034;5.554;2022-08-01T11:31:30;5.13;;;1.73;;
19026;SDS011;9646;52.034;5.554;2022-08-01T11:33:58;2.47;;;1.00;;
19026;SDS011;9646;52.034;5.554;2022-08-01T11:36:26;8.10;;;1.88;;
19026;SDS011;9646;52.034;5.554;2022-08-01T11:39:12;5.60;;;1.60;;
19026;SDS011;9646;52.034;5.554;2022-08-01T11:41:40;4.50;;;1.63;;
19026;SDS011;9646;52.034;5.554;2022-08-01T11:44:08;5.22;;;1.90;;
19026;SDS011;9646;52.034;5.554;2022-08-01T11:46:46;3.67;;;1.67;;
19026;SDS011;9646;52.034;5.554;2022-08-01T11:49:23;9.13;;;1.92;;
19026;SDS011;9646;52.034;5.554;2022-08-01T11:51:56;4.00;;;1.45;;
19026;SDS011;9646;52.034;5.554;2022-08-01T11:54:24;5.78;;;1.30;;
19026;SDS011;9646;52.034;5.554;2022-08-01T11:56:53;5.13;;;1.35;;
19026;SDS011;9646;52.034;5.554;2022-08-01T11:59:21;5.22;;;1.77;;
19026;SDS011;9646;52.034;5.554;2022-08-01T12:01:49;5.47;;;1.58;;
19026;SDS011;9646;52.034;5.554;2022-08-01T12:04:17;6.13;;;1.70;;
19026;SDS011;9646;52.034;5.554;2022-08-01T12:06:44;2.88;;;1.27;;
19026;SDS011;9646;52.034;5.554;2022-08-01T12:09:14;7.95;;;2.17;;
19026;SDS011;9646;52.034;5.554;2022-08-01T12:11:42;4.47;;;1.60;;
19026;SDS011;9646;52.034;5.554;2022-08-01T12:14:09;4.20;;;1.50;;
19026;SDS011;9646;52.034;5.554;2022-08-01T12:16:36;5.85;;;2.00;;
19026;SDS011;9646;52.034;5.554;2022-08-01T12:19:04;7.47;;;2.08;;
19026;SDS011;9646;52.034;5.554;2022-08-01T12:21:31;5.47;;;1.40;;
19026;SDS011;9646;52.034;5.554;2022-08-01T12:24:01;6.10;;;1.45;;
19026;SDS011;9646;52.034;5.554;2022-08-01T12:26:39;4.78;;;1.42;;
19026;SDS011;9646;52.034;5.554;2022-08-01T12:29:06;4.50;;;1.02;;
19026;SDS011;9646;52.034;5.554;2022-08-01T12:31:33;4.80;;;1.27;;
19026;SDS011;9646;52.034;5.554;2022-08-01T12:36:44;3.67;;;1.25;;
19026;SDS011;9646;52.034;5.554;2022-08-01T12:39:11;5.65;;;1.90;;
19026;SDS011;9646;52.034;5.554;2022-08-01T12:41:38;12.38;;;2.42;;
19026;SDS011;9646;52.034;5.554;2022-08-01T12:44:11;8.63;;;1.90;;
19026;SDS011;9646;52.034;5.554;2022-08-01T12:46:39;6.03;;;1.98;;
19026;SDS011;9646;52.034;5.554;2022-08-01T12:49:07;2.88;;;1.20;;
19026;SDS011;9646;52.034;5.554;2022-08-01T12:51:34;2.35;;;1.20;;
19026;SDS011;9646;52.034;5.554;2022-08-01T12:54:03;3.15;;;1.30;;
19026;SDS011;9646;52.034;5.554;2022-08-01T12:56:33;4.80;;;1.70;;
19026;SDS011;9646;52.034;5.554;2022-08-01T12:59:00;4.80;;;1.20;;
19026;SDS011;9646;52.034;5.554;2022-08-01T13:01:28;1.90;;;0.80;;
19026;SDS011;9646;52.034;5.554;2022-08-01T13:03:59;2.70;;;0.93;;
19026;SDS011;9646;52.034;5.554;2022-08-01T13:06:29;4.85;;;1.15;;
19026;SDS011;9646;52.034;5.554;2022-08-01T13:09:05;3.80;;;1.20;;
19026;SDS011;9646;52.034;5.554;2022-08-01T13:11:32;4.55;;;1.23;;
19026;SDS011;9646;52.034;5.554;2022-08-01T13:14:00;2.42;;;0.90;;
19026;SDS011;9646;52.034;5.554;2022-08-01T13:16:27;1.95;;;0.90;;
19026;SDS011;9646;52.034;5.554;2022-08-01T13:18:55;1.67;;;0.82;;
19026;SDS011;9646;52.034;5.554;2022-08-01T13:21:24;2.13;;;0.68;;
19026;SDS011;9646;52.034;5.554;2022-08-01T13:24:01;2.72;;;1.10;;
19026;SDS011;9646;52.034;5.554;2022-08-01T13:26:39;3.70;;;1.25;;
19026;SDS011;9646;52.034;5.554;2022-08-01T13:29:07;2.25;;;0.85;;
19026;SDS011;9646;52.034;5.554;2022-08-01T13:31:34;5.05;;;1.15;;
19026;SDS011;9646;52.034;5.554;2022-08-01T13:34:02;4.60;;;1.23;;
19026;SDS011;9646;52.034;5.554;2022-08-01T13:36:29;1.95;;;0.80;;
19026;SDS011;9646;52.034;5.554;2022-08-01T13:38:57;3.33;;;1.00;;
19026;SDS011;9646;52.034;5.554;2022-08-01T13:41:43;2.35;;;1.02;;
19026;SDS011;9646;52.034;5.554;2022-08-01T13:44:10;2.97;;;1.00;;
19026;SDS011;9646;52.034;5.554;2022-08-01T13:46:38;3.63;;;1.00;;
19026;SDS011;9646;52.034;5.554;2022-08-01T13:49:06;2.97;;;0.88;;
19026;SDS011;9646;52.034;5.554;2022-08-01T13:51:33;3.10;;;0.90;;
19026;SDS011;9646;52.034;5.554;2022-08-01T13:54:01;2.63;;;0.88;;
19026;SDS011;9646;52.034;5.554;2022-08-01T13:56:28;3.55;;;0.80;;
19026;SDS011;9646;52.034;5.554;2022-08-01T13:58:56;2.88;;;0.93;;
19026;SDS011;9646;52.034;5.554;2022-08-01T14:01:23;2.58;;;0.82;;
19026;SDS011;9646;52.034;5.554;2022-08-01T14:03:51;2.03;;;1.05;;
19026;SDS011;9646;52.034;5.554;2022-08-01T14:06:18;2.50;;;0.70;;
19026;SDS011;9646;52.034;5.554;2022-08-01T14:08:47;1.45;;;0.82;;
19026;SDS011;9646;52.034;5.554;2022-08-01T14:11:14;4.28;;;0.80;;
19026;SDS011;9646;52.034;5.554;2022-08-01T14:13:41;2.35;;;0.60;;
19026;SDS011;9646;52.034;5.554;2022-08-01T14:16:10;2.17;;;0.95;;
19026;SDS011;9646;52.034;5.554;2022-08-01T14:18:37;3.65;;;0.90;;
19026;SDS011;9646;52.034;5.554;2022-08-01T14:21:04;4.15;;;0.80;;
19026;SDS011;9646;52.034;5.554;2022-08-01T14:23:31;2.67;;;1.13;;
19026;SDS011;9646;52.034;5.554;2022-08-01T14:25:58;2.10;;;0.70;;
19026;SDS011;9646;52.034;5.554;2022-08-01T14:28:26;2.05;;;0.70;;
19026;SDS011;9646;52.034;5.554;2022-08-01T14:30:55;2.13;;;0.80;;
19026;SDS011;9646;52.034;5.554;2022-08-01T14:33:23;1.10;;;0.80;;
19026;SDS011;9646;52.034;5.554;2022-08-01T14:35:51;3.00;;;0.80;;
19026;SDS011;9646;52.034;5.554;2022-08-01T14:38:18;3.13;;;1.05;;
19026;SDS011;9646;52.034;5.554;2022-08-01T14:40:45;2.83;;;0.85;;
19026;SDS011;9646;52.034;5.554;2022-08-01T14:43:16;4.30;;;1.10;;
19026;SDS011;9646;52.034;5.554;2022-08-01T14:45:43;2.30;;;0.90;;
19026;SDS011;9646;52.034;5.554;2022-08-01T14:48:10;12.02;;;2.08;;
19026;SDS011;9646;52.034;5.554;2022-08-01T14:50:38;1.95;;;0.60;;
19026;SDS011;9646;52.034;5.554;2022-08-01T14:53:06;2.65;;;0.70;;
19026;SDS011;9646;52.034;5.554;2022-08-01T14:55:33;1.88;;;0.70;;
19026;SDS011;9646;52.034;5.554;2022-08-01T14:58:00;2.55;;;0.82;;
19026;SDS011;9646;52.034;5.554;2022-08-01T15:00:27;2.20;;;0.57;;
19026;SDS011;9646;52.034;5.554;2022-08-01T15:02:54;2.38;;;0.80;;
19026;SDS011;9646;52.034;5.554;2022-08-01T15:05:21;1.55;;;0.70;;
19026;SDS011;9646;52.034;5.554;2022-08-01T15:07:49;3.72;;;0.80;;
19026;SDS011;9646;52.034;5.554;2022-08-01T15:10:16;1.33;;;0.52;;
19026;SDS011;9646;52.034;5.554;2022-08-01T15:12:44;1.50;;;0.80;;
19026;SDS011;9646;52.034;5.554;2022-08-01T15:15:11;4.20;;;0.70;;
19026;SDS011;9646;52.034;5.554;2022-08-01T15:17:38;2.15;;;0.70;;
19026;SDS011;9646;52.034;5.554;2022-08-01T15:20:05;2.55;;;0.75;;
19026;SDS011;9646;52.034;5.554;2022-08-01T15:22:33;2.40;;;0.80;;
19026;SDS011;9646;52.034;5.554;2022-08-01T15:25:02;3.58;;;0.70;;